Time;durP1;ratioP1;P1;durP2;ratioP2;P2;SDS_P1;SDS_P2;PMS_P1;PMS_P2;Temp;Humidity;BMP_temperature;BMP_pressure;BME280_temperature;BME280_humidity;BME280_pressure;Samples;Min_cycle;Max_cycle;Signal;HPM_P1;HPM_P2
2022/05/18 00:00:05;;;;;;;9.40;4.45;;;16.10;99.90;;;;;;5037971;28;20124;-77
2022/05/18 00:02:36;;;;;;;9.32;4.70;;;16.10;99.90;;;;;;5041501;28;20045;-76
2022/05/18 00:05:05;;;;;;;7.07;3.92;;;16.10;99.90;;;;;;5057148;28;20049;-76
2022/05/18 00:07:33;;;;;;;7.82;4.22;;;16.10;99.90;;;;;;5057495;28;20049;-76
2022/05/18 00:10:01;;;;;;;10.82;3.75;;;16.10;99.90;;;;;;5057159;28;20144;-77
2022/05/18 00:12:28;;;;;;;5.35;4.03;;;16.20;99.90;;;;;;5056923;28;20044;-77
2022/05/18 00:14:56;;;;;;;7.90;5.00;;;16.20;99.90;;;;;;5039254;28;20105;-77
2022/05/18 00:17:25;;;;;;;9.82;5.72;;;16.20;99.90;;;;;;5056693;28;20045;-78
2022/05/18 00:19:52;;;;;;;10.45;6.47;;;16.30;99.90;;;;;;5039645;28;20098;-77
2022/05/18 00:22:20;;;;;;;8.18;6.10;;;16.30;99.90;;;;;;5055411;28;20098;-77
2022/05/18 00:24:47;;;;;;;12.80;7.28;;;16.30;99.90;;;;;;5038675;28;20036;-77
2022/05/18 00:27:15;;;;;;;9.73;6.65;;;16.30;99.90;;;;;;5036517;28;20033;-77
2022/05/18 00:29:42;;;;;;;8.88;5.60;;;16.30;99.90;;;;;;5035169;28;20053;-75
2022/05/18 00:32:10;;;;;;;8.77;6.03;;;16.30;99.90;;;;;;5036605;28;20124;-76
2022/05/18 00:34:39;;;;;;;12.88;6.88;;;16.30;99.90;;;;;;5036542;28;20049;-78
2022/05/18 00:37:06;;;;;;;14.13;6.22;;;16.20;99.90;;;;;;5036728;28;20049;-77
2022/05/18 00:39:34;;;;;;;12.40;6.07;;;16.20;99.90;;;;;;5036216;28;20140;-77
2022/05/18 00:42:01;;;;;;;10.40;5.32;;;16.20;99.90;;;;;;5037201;28;20049;-77
2022/05/18 00:44:28;;;;;;;12.25;4.93;;;16.20;99.90;;;;;;5037140;28;20041;-77
2022/05/18 00:46:56;;;;;;;6.90;4.20;;;16.20;99.90;;;;;;5037306;28;20202;-77
2022/05/18 00:49:23;;;;;;;10.95;5.03;;;16.10;99.90;;;;;;5036488;28;20053;-76
2022/05/18 00:51:55;;;;;;;5.40;4.30;;;16.10;99.90;;;;;;5036943;28;20041;-77
2022/05/18 00:54:27;;;;;;;9.43;4.00;;;16.00;99.90;;;;;;5035990;28;20049;-78
2022/05/18 00:56:59;;;;;;;8.90;4.22;;;16.10;99.90;;;;;;5028269;28;20432;-77
2022/05/18 00:59:32;;;;;;;7.15;4.57;;;16.00;99.90;;;;;;5016232;28;20521;-77
2022/05/18 01:02:01;;;;;;;6.65;5.15;;;16.00;99.90;;;;;;5017520;28;20052;-77
2022/05/18 01:04:28;;;;;;;7.97;5.13;;;16.00;99.90;;;;;;5034056;28;20044;-77
2022/05/18 01:07:03;;;;;;;7.45;5.85;;;16.00;99.90;;;;;;5036541;28;20037;-78
2022/05/18 01:09:34;;;;;;;9.80;5.68;;;16.10;99.90;;;;;;5037607;28;20041;-76
2022/05/18 01:12:01;;;;;;;7.22;5.30;;;16.00;99.90;;;;;;5040938;28;20117;-77
2022/05/18 01:14:31;;;;;;;7.68;4.30;;;16.00;99.90;;;;;;5038731;28;20051;-78
2022/05/18 01:16:59;;;;;;;6.50;3.55;;;16.00;99.90;;;;;;5036612;28;20042;-77
2022/05/18 01:19:35;;;;;;;4.82;3.17;;;16.00;99.90;;;;;;5036561;28;20050;-76
2022/05/18 01:22:14;;;;;;;6.45;3.60;;;16.00;99.90;;;;;;5036261;28;20096;-78
2022/05/18 01:24:50;;;;;;;4.95;3.70;;;16.10;99.90;;;;;;5035890;28;20047;-78
2022/05/18 01:27:18;;;;;;;6.93;4.10;;;16.10;99.90;;;;;;5036516;28;20138;-77
2022/05/18 01:29:46;;;;;;;4.78;3.72;;;16.10;99.90;;;;;;5034770;28;20501;-77
2022/05/18 01:32:16;;;;;;;8.13;4.50;;;16.10;99.90;;;;;;5035940;28;20389;-78
2022/05/18 01:34:44;;;;;;;6.25;4.25;;;16.20;99.90;;;;;;5035993;28;20050;-77
2022/05/18 01:37:12;;;;;;;8.85;4.55;;;16.20;99.90;;;;;;5035857;28;20121;-77
2022/05/18 01:39:44;;;;;;;6.75;4.25;;;16.20;99.90;;;;;;5034281;28;20103;-76
2022/05/18 01:42:22;;;;;;;7.25;4.57;;;16.10;99.90;;;;;;5035515;28;20045;-79
2022/05/18 01:44:50;;;;;;;9.60;5.60;;;16.10;99.90;;;;;;5036104;28;20045;-77
2022/05/18 01:47:17;;;;;;;8.13;5.18;;;16.10;99.90;;;;;;5035884;28;20402;-77
2022/05/18 01:49:46;;;;;;;10.38;5.97;;;16.20;99.90;;;;;;5035305;28;20057;-77
2022/05/18 01:52:14;;;;;;;11.52;8.00;;;16.20;99.90;;;;;;5034427;28;20398;-79
2022/05/18 01:54:44;;;;;;;10.85;6.88;;;16.30;99.90;;;;;;5035091;28;20417;-77
2022/05/18 01:57:12;;;;;;;10.25;7.50;;;16.30;99.90;;;;;;5035674;28;20088;-77
2022/05/18 01:59:42;;;;;;;9.68;5.72;;;16.20;99.90;;;;;;5035354;28;20140;-76
2022/05/18 02:02:12;;;;;;;10.82;6.50;;;16.30;99.90;;;;;;5033344;28;20050;-77
2022/05/18 02:04:40;;;;;;;10.55;6.28;;;16.30;99.90;;;;;;5034061;28;20045;-78
2022/05/18 02:07:08;;;;;;;8.73;6.78;;;16.30;99.90;;;;;;5035364;28;20512;-77
2022/05/18 02:09:35;;;;;;;9.18;7.13;;;16.30;99.90;;;;;;5034072;28;20049;-76
2022/05/18 02:12:04;;;;;;;11.68;7.13;;;16.30;99.90;;;;;;5034333;28;20049;-77
2022/05/18 02:14:31;;;;;;;13.02;7.35;;;16.30;99.90;;;;;;5035020;28;20045;-78
2022/05/18 02:17:00;;;;;;;12.00;6.85;;;16.30;99.90;;;;;;5035457;28;20440;-77
2022/05/18 02:19:28;;;;;;;9.55;5.75;;;16.40;99.90;;;;;;5035170;28;20508;-77
2022/05/18 02:21:55;;;;;;;12.55;5.50;;;16.40;99.90;;;;;;5034130;28;20048;-78
2022/05/18 02:24:23;;;;;;;8.45;5.32;;;16.40;99.90;;;;;;5034806;28;20045;-78
2022/05/18 02:26:50;;;;;;;9.10;5.50;;;16.40;99.90;;;;;;5017800;28;20077;-77
2022/05/18 02:29:18;;;;;;;10.27;5.78;;;16.40;99.90;;;;;;5015530;28;20068;-76
2022/05/18 02:31:45;;;;;;;8.25;4.97;;;16.50;99.90;;;;;;5015647;28;20068;-78
2022/05/18 02:34:15;;;;;;;7.40;4.85;;;16.50;99.90;;;;;;5015317;28;20045;-78
2022/05/18 02:36:44;;;;;;;7.97;4.88;;;16.50;99.90;;;;;;5014889;28;20041;-77
2022/05/18 02:39:11;;;;;;;7.68;4.63;;;16.60;99.90;;;;;;5014628;28;20072;-79
2022/05/18 02:41:39;;;;;;;8.82;4.80;;;16.60;99.90;;;;;;5014895;28;20042;-77
2022/05/18 02:44:07;;;;;;;7.63;4.80;;;16.60;99.90;;;;;;5014682;28;20042;-77
2022/05/18 02:46:34;;;;;;;8.05;4.60;;;16.60;99.90;;;;;;5015662;28;20141;-76
2022/05/18 02:49:02;;;;;;;8.75;4.80;;;16.60;99.90;;;;;;5017909;28;20046;-75
2022/05/18 02:51:31;;;;;;;11.95;5.13;;;16.60;99.90;;;;;;5023240;28;20117;-76
2022/05/18 02:53:58;;;;;;;6.88;4.55;;;16.60;99.90;;;;;;5024217;28;20064;-76
2022/05/18 02:56:26;;;;;;;8.32;4.85;;;16.50;99.90;;;;;;5019855;28;20516;-78
2022/05/18 02:58:56;;;;;;;10.32;5.53;;;16.50;99.90;;;;;;5037162;28;20053;-77
2022/05/18 03:01:26;;;;;;;13.88;6.40;;;16.50;99.90;;;;;;5017551;28;20053;-78
2022/05/18 03:03:54;;;;;;;13.38;6.03;;;16.50;99.90;;;;;;5015452;28;20061;-78
2022/05/18 03:06:26;;;;;;;12.18;5.75;;;16.50;99.90;;;;;;5014674;28;20042;-77
2022/05/18 03:08:55;;;;;;;9.70;6.93;;;16.50;99.90;;;;;;5013464;28;20050;-77
2022/05/18 03:11:22;;;;;;;12.60;7.20;;;16.50;99.90;;;;;;5014909;28;20072;-77
2022/05/18 03:13:50;;;;;;;11.68;6.88;;;16.50;99.90;;;;;;5015704;28;20053;-78
2022/05/18 03:16:18;;;;;;;10.43;7.05;;;16.50;99.90;;;;;;5014199;28;20049;-76
2022/05/18 03:18:45;;;;;;;10.73;7.03;;;16.50;99.90;;;;;;5015005;28;20088;-77
2022/05/18 03:23:59;;;;;;;9.85;7.25;;;16.50;99.90;;;;;;5020215;28;20050;-77
2022/05/18 03:26:27;;;;;;;11.32;7.35;;;16.50;99.90;;;;;;5043796;28;20515;-77
2022/05/18 03:28:56;;;;;;;11.60;7.70;;;16.50;99.90;;;;;;5054578;28;20064;-76
2022/05/18 03:31:24;;;;;;;14.05;7.57;;;16.50;99.90;;;;;;5054615;28;20136;-77
2022/05/18 03:33:54;;;;;;;10.50;7.15;;;16.40;99.90;;;;;;5053646;28;20045;-77
2022/05/18 03:36:23;;;;;;;13.00;7.55;;;16.40;99.90;;;;;;5054127;28;20080;-77
2022/05/18 03:38:52;;;;;;;10.40;7.25;;;16.40;99.90;;;;;;5036554;28;20049;-77
2022/05/18 03:41:21;;;;;;;11.35;8.10;;;16.40;99.90;;;;;;5036323;28;20400;-78
2022/05/18 03:43:49;;;;;;;10.25;7.80;;;16.50;99.90;;;;;;5054057;28;20552;-77
2022/05/18 03:46:17;;;;;;;12.77;7.38;;;16.50;99.90;;;;;;5054417;28;20034;-78
2022/05/18 03:48:44;;;;;;;10.00;8.25;;;16.40;99.90;;;;;;5042171;28;20041;-77
2022/05/18 03:51:14;;;;;;;10.43;8.05;;;16.40;99.90;;;;;;5036605;28;20049;-77
2022/05/18 03:53:42;;;;;;;11.65;8.35;;;16.40;99.90;;;;;;5054756;28;20049;-77
2022/05/18 03:56:11;;;;;;;15.02;9.07;;;16.50;99.90;;;;;;5054458;28;20044;-77
2022/05/18 03:58:40;;;;;;;15.90;9.23;;;16.40;99.90;;;;;;5038190;28;20067;-77
2022/05/18 04:01:09;;;;;;;12.57;8.82;;;16.40;99.90;;;;;;5055321;28;20111;-77
2022/05/18 04:03:38;;;;;;;11.88;9.63;;;16.40;99.90;;;;;;5053832;28;20143;-77
2022/05/18 04:06:06;;;;;;;12.98;10.45;;;16.40;99.90;;;;;;5054162;28;20049;-77
2022/05/18 04:08:34;;;;;;;12.48;11.02;;;16.40;99.90;;;;;;5053332;28;20404;-77
2022/05/18 04:11:02;;;;;;;14.93;11.50;;;16.40;99.90;;;;;;5052713;28;20481;-79
2022/05/18 04:13:29;;;;;;;16.10;11.82;;;16.40;99.90;;;;;;5052905;28;20070;-76
2022/05/18 04:15:59;;;;;;;15.80;13.07;;;16.30;99.90;;;;;;5053324;28;20072;-77
2022/05/18 04:18:26;;;;;;;16.83;12.63;;;16.30;99.90;;;;;;5053408;28;20041;-77
2022/05/18 04:20:55;;;;;;;16.17;11.90;;;16.30;99.90;;;;;;5054267;28;20106;-77
2022/05/18 04:23:24;;;;;;;13.20;11.82;;;16.30;99.90;;;;;;5057419;28;20041;-77
2022/05/18 04:25:52;;;;;;;15.52;12.13;;;16.20;99.90;;;;;;5054801;28;20075;-76
2022/05/18 04:28:20;;;;;;;14.77;12.88;;;16.30;99.90;;;;;;5055467;28;20033;-76
2022/05/18 04:30:49;;;;;;;17.38;13.82;;;16.30;99.90;;;;;;5054579;28;20056;-77
2022/05/18 04:33:20;;;;;;;17.17;13.50;;;16.30;99.90;;;;;;5053946;28;20037;-77
2022/05/18 04:35:48;;;;;;;15.13;13.52;;;16.20;99.90;;;;;;5055557;28;20041;-77
2022/05/18 04:38:16;;;;;;;17.10;12.65;;;16.20;99.90;;;;;;5057962;28;20083;-77
2022/05/18 04:40:43;;;;;;;19.70;12.65;;;16.20;99.90;;;;;;5057547;28;20047;-77
2022/05/18 04:43:11;;;;;;;15.70;12.70;;;16.20;99.90;;;;;;5058050;28;20131;-77
2022/05/18 04:45:44;;;;;;;20.20;13.55;;;16.20;99.90;;;;;;5056951;28;20048;-77
2022/05/18 04:48:15;;;;;;;16.83;12.55;;;16.20;99.90;;;;;;5036964;28;20123;-76
2022/05/18 04:50:45;;;;;;;13.20;11.80;;;16.20;99.90;;;;;;5055487;28;20075;-77
2022/05/18 04:53:14;;;;;;;12.27;9.98;;;16.20;99.90;;;;;;5057661;28;20047;-77
2022/05/18 04:55:42;;;;;;;12.45;10.05;;;16.20;99.90;;;;;;5061769;28;20045;-77
2022/05/18 04:58:09;;;;;;;14.65;9.32;;;16.10;99.90;;;;;;5066938;28;20184;-77
2022/05/18 05:00:38;;;;;;;14.10;10.60;;;16.20;99.90;;;;;;5061871;28;20056;-76
2022/05/18 05:03:05;;;;;;;13.27;10.43;;;16.20;99.90;;;;;;5058023;28;20116;-75
2022/05/18 05:05:33;;;;;;;8.57;7.45;;;16.10;99.90;;;;;;5054580;28;20520;-76
2022/05/18 05:08:02;;;;;;;14.15;9.05;;;16.00;99.90;;;;;;5058990;28;20506;-75
2022/05/18 05:10:29;;;;;;;10.75;9.05;;;15.80;99.90;;;;;;5041505;28;20073;-76
2022/05/18 05:12:57;;;;;;;8.20;7.40;;;15.80;99.90;;;;;;5057541;28;20092;-76
2022/05/18 05:15:24;;;;;;;6.97;4.78;;;15.90;99.90;;;;;;5058246;28;20044;-77
2022/05/18 05:17:52;;;;;;;8.68;4.35;;;15.70;99.90;;;;;;5038396;28;20045;-76
2022/05/18 05:20:19;;;;;;;4.47;3.30;;;15.60;99.90;;;;;;5055422;28;20071;-77
2022/05/18 05:22:47;;;;;;;7.43;3.75;;;15.60;99.90;;;;;;5056076;28;20048;-77
2022/05/18 05:25:16;;;;;;;5.10;4.13;;;15.50;99.90;;;;;;5053914;28;20081;-76
2022/05/18 05:27:43;;;;;;;4.93;3.42;;;15.50;99.90;;;;;;5055276;28;20568;-75
2022/05/18 05:30:13;;;;;;;4.28;3.50;;;15.40;99.90;;;;;;5037465;28;20102;-75
2022/05/18 05:32:40;;;;;;;5.82;3.72;;;15.30;99.90;;;;;;5055009;28;20041;-77
2022/05/18 05:35:10;;;;;;;4.00;2.42;;;15.30;99.90;;;;;;5055151;28;20072;-76
2022/05/18 05:37:37;;;;;;;12.32;7.43;;;15.10;99.90;;;;;;5045337;28;20033;-76
2022/05/18 05:40:07;;;;;;;5.47;3.47;;;15.00;99.90;;;;;;5035390;28;20045;-77
2022/05/18 05:42:37;;;;;;;6.32;3.05;;;15.00;99.90;;;;;;5035767;28;20091;-76
2022/05/18 05:45:06;;;;;;;3.00;2.22;;;15.10;99.90;;;;;;5043829;28;20107;-77
2022/05/18 05:47:33;;;;;;;7.53;3.03;;;15.20;99.90;;;;;;5050664;28;20388;-76
2022/05/18 05:50:00;;;;;;;8.68;4.95;;;15.20;99.90;;;;;;5054801;28;20041;-76
2022/05/18 05:52:28;;;;;;;6.45;3.40;;;15.10;99.90;;;;;;5055721;28;20072;-77
2022/05/18 05:54:55;;;;;;;8.32;4.30;;;15.10;99.90;;;;;;5054652;28;20063;-75
2022/05/18 05:57:23;;;;;;;7.97;3.38;;;15.10;99.90;;;;;;5055739;28;20477;-78
2022/05/18 05:59:52;;;;;;;10.60;7.22;;;15.30;99.90;;;;;;5054244;28;20045;-76
2022/05/18 06:02:19;;;;;;;8.95;5.43;;;15.50;99.90;;;;;;5045655;28;20563;-77
2022/05/18 06:04:48;;;;;;;9.27;5.13;;;15.70;99.90;;;;;;5054709;28;20045;-76
2022/05/18 06:07:15;;;;;;;7.82;5.45;;;15.90;99.90;;;;;;5054379;28;20551;-76
2022/05/18 06:09:42;;;;;;;9.27;2.60;;;16.10;99.90;;;;;;5054445;28;20049;-77
2022/05/18 06:12:11;;;;;;;5.22;3.13;;;16.10;99.90;;;;;;5056096;28;20094;-76
2022/05/18 06:14:38;;;;;;;6.93;3.30;;;16.00;99.90;;;;;;5057428;28;20076;-77
2022/05/18 06:17:07;;;;;;;6.50;4.13;;;16.00;99.90;;;;;;5038441;28;20041;-77
2022/05/18 06:19:34;;;;;;;6.43;4.50;;;16.10;99.90;;;;;;5053346;28;20045;-76
2022/05/18 06:22:03;;;;;;;9.32;4.00;;;16.20;99.90;;;;;;5038124;28;20554;-75
2022/05/18 06:24:30;;;;;;;8.30;4.30;;;16.20;99.90;;;;;;5056072;28;20044;-77
2022/05/18 06:26:59;;;;;;;6.93;4.65;;;16.10;99.90;;;;;;5036695;28;20424;-76
2022/05/18 06:29:27;;;;;;;7.65;5.20;;;16.20;99.90;;;;;;5054955;28;20095;-76
2022/05/18 06:31:54;;;;;;;8.00;4.57;;;16.20;99.90;;;;;;5058309;28;20053;-77
2022/05/18 06:34:25;;;;;;;9.07;4.78;;;16.20;99.90;;;;;;5055232;28;20401;-77
2022/05/18 06:36:52;;;;;;;7.07;4.93;;;16.10;99.90;;;;;;5054156;28;20048;-76
2022/05/18 06:39:20;;;;;;;8.43;4.93;;;15.90;99.90;;;;;;5054484;28;20056;-77
2022/05/18 06:41:48;;;;;;;7.10;4.50;;;15.90;99.90;;;;;;5054619;28;20049;-77
2022/05/18 06:44:17;;;;;;;7.50;4.80;;;16.00;99.90;;;;;;5054537;28;20041;-78
2022/05/18 06:46:44;;;;;;;8.20;4.57;;;16.00;99.90;;;;;;5054492;28;20125;-76
2022/05/18 06:49:13;;;;;;;9.88;4.70;;;16.10;99.90;;;;;;5054468;28;20041;-77
2022/05/18 06:51:44;;;;;;;9.80;4.35;;;16.20;99.90;;;;;;5054470;28;20037;-78
2022/05/18 06:54:12;;;;;;;7.13;4.30;;;16.40;99.90;;;;;;5054395;28;20075;-77
2022/05/18 06:56:42;;;;;;;9.02;4.30;;;16.40;99.90;;;;;;5054273;28;20037;-77
2022/05/18 06:59:10;;;;;;;9.10;5.05;;;16.50;99.90;;;;;;5054040;28;20124;-76
2022/05/18 07:01:38;;;;;;;7.97;3.58;;;16.70;99.90;;;;;;5037330;28;20415;-78
2022/05/18 07:04:06;;;;;;;8.32;4.10;;;16.90;99.90;;;;;;5062593;28;20065;-77
2022/05/18 07:06:37;;;;;;;8.02;4.20;;;17.20;99.90;;;;;;5067929;28;20108;-76
2022/05/18 07:09:08;;;;;;;9.82;4.18;;;17.40;99.90;;;;;;5066691;28;20041;-78
2022/05/18 07:11:36;;;;;;;6.50;4.03;;;17.70;99.90;;;;;;5037504;28;20048;-77
2022/05/18 07:14:05;;;;;;;9.10;4.32;;;17.90;99.90;;;;;;5036655;28;20431;-78
2022/05/18 07:16:33;;;;;;;7.72;4.47;;;18.10;99.90;;;;;;5054412;28;20047;-78
2022/05/18 07:19:01;;;;;;;8.27;4.25;;;18.20;99.90;;;;;;5054661;28;20412;-78
2022/05/18 07:21:29;;;;;;;8.40;6.18;;;18.40;99.90;;;;;;5036200;28;20052;-76
2022/05/18 07:23:57;;;;;;;10.50;5.40;;;18.50;99.90;;;;;;5053869;28;20059;-77
2022/05/18 07:26:28;;;;;;;8.63;4.15;;;18.70;99.90;;;;;;5053677;28;20067;-77
2022/05/18 07:28:56;;;;;;;7.32;4.32;;;18.60;99.90;;;;;;5036632;28;20037;-79
2022/05/18 07:31:23;;;;;;;7.22;3.72;;;18.60;99.90;;;;;;5053910;28;20048;-78
2022/05/18 07:33:51;;;;;;;7.10;4.10;;;18.40;99.90;;;;;;5054445;28;20063;-77
2022/05/18 07:36:19;;;;;;;7.00;3.65;;;18.20;99.90;;;;;;5053822;28;20037;-78
2022/05/18 07:38:47;;;;;;;4.90;3.08;;;18.10;99.90;;;;;;5055001;28;20045;-77
2022/05/18 07:41:17;;;;;;;8.73;3.50;;;18.20;99.90;;;;;;5054728;28;20045;-77
2022/05/18 07:43:45;;;;;;;4.65;3.80;;;18.30;99.90;;;;;;5053303;28;20049;-77
2022/05/18 07:46:13;;;;;;;9.07;3.83;;;18.00;99.90;;;;;;5053746;28;20052;-75
2022/05/18 07:48:42;;;;;;;8.13;4.53;;;17.80;99.90;;;;;;5053877;28;20469;-76
2022/05/18 07:51:10;;;;;;;6.88;4.28;;;17.70;99.90;;;;;;5053739;28;20051;-76
2022/05/18 07:53:37;;;;;;;8.40;4.28;;;18.00;99.90;;;;;;5052996;28;20049;-78
2022/05/18 07:56:05;;;;;;;11.30;4.40;;;18.00;99.90;;;;;;5053265;28;20504;-78
2022/05/18 07:58:33;;;;;;;9.20;4.03;;;18.30;99.90;;;;;;5053375;28;20057;-76
2022/05/18 08:01:02;;;;;;;7.90;3.40;;;18.80;99.90;;;;;;5053155;28;20043;-77
2022/05/18 08:03:29;;;;;;;8.07;3.97;;;19.20;99.90;;;;;;5053588;28;20047;-77
2022/05/18 08:05:57;;;;;;;10.02;4.85;;;19.50;99.90;;;;;;5053636;28;20075;-78
2022/05/18 08:08:24;;;;;;;7.32;4.07;;;20.00;99.90;;;;;;5054213;28;20045;-78
2022/05/18 08:16:30;;;;;;;9.23;4.78;;;20.50;99.90;;;;;;5000595;28;20074;-77
2022/05/18 08:18:58;;;;;;;7.35;4.70;;;19.70;99.90;;;;;;5057401;28;20481;-77
2022/05/18 08:21:25;;;;;;;7.55;4.95;;;19.60;99.90;;;;;;5057105;28;20091;-76
2022/05/18 08:23:53;;;;;;;8.90;5.22;;;19.70;99.90;;;;;;5057413;28;20064;-78
2022/05/18 08:26:20;;;;;;;8.52;4.97;;;19.80;99.90;;;;;;5039333;28;20500;-76
2022/05/18 08:28:48;;;;;;;15.60;6.82;;;19.80;99.90;;;;;;5057366;28;20486;-77
2022/05/18 08:31:17;;;;;;;9.85;5.40;;;20.10;99.90;;;;;;5057001;28;20420;-75
2022/05/18 08:33:46;;;;;;;8.90;4.43;;;20.30;99.90;;;;;;5056924;28;20052;-78
2022/05/18 08:36:14;;;;;;;8.13;4.13;;;20.50;99.90;;;;;;5057314;28;20037;-77
2022/05/18 08:38:41;;;;;;;8.48;6.45;;;20.20;99.90;;;;;;5056823;28;20040;-77
2022/05/18 08:41:14;;;;;;;10.48;6.10;;;20.10;99.90;;;;;;5056948;28;20381;-77
2022/05/18 08:43:44;;;;;;;15.55;7.10;;;20.20;99.90;;;;;;5055974;28;20045;-76
2022/05/18 08:46:17;;;;;;;9.23;4.03;;;20.10;99.90;;;;;;5056716;28;20037;-76
2022/05/18 08:48:54;;;;;;;6.13;4.20;;;20.10;99.90;;;;;;5055517;28;20041;-77
2022/05/18 08:51:45;;;;;;;10.02;4.65;;;19.90;99.90;;;;;;5038766;28;20489;-77
2022/05/18 08:54:27;;;;;;;9.88;3.65;;;19.80;99.90;;;;;;5056410;28;20123;-77
2022/05/18 08:56:58;;;;;;;9.43;3.90;;;19.70;99.90;;;;;;5056553;28;20512;-77
2022/05/18 08:59:28;;;;;;;5.95;3.05;;;19.60;99.90;;;;;;5056728;28;20404;-78
2022/05/18 09:01:58;;;;;;;5.97;3.53;;;19.80;99.90;;;;;;5056933;28;20048;-77
2022/05/18 09:04:39;;;;;;;10.77;4.13;;;19.40;99.90;;;;;;5038618;28;20045;-78
2022/05/18 09:07:14;;;;;;;9.15;4.40;;;19.90;99.90;;;;;;5057065;28;20037;-77
2022/05/18 09:12:33;;;;;;;8.13;3.22;;;21.20;99.90;;;;;;5057454;28;20389;-76
2022/05/18 09:15:03;;;;;;;6.43;3.00;;;20.60;99.90;;;;;;5059762;28;20049;-78
2022/05/18 09:17:36;;;;;;;6.70;3.60;;;20.30;99.90;;;;;;5059701;28;20068;-77
2022/05/18 09:20:15;;;;;;;6.60;3.60;;;20.30;99.90;;;;;;5057162;28;20051;-78
2022/05/18 09:23:11;;;;;;;9.27;3.15;;;20.50;99.90;;;;;;5056379;28;20045;-78
2022/05/18 09:25:53;;;;;;;7.50;3.40;;;20.70;99.90;;;;;;5049712;28;20061;-77
2022/05/18 09:28:36;;;;;;;9.98;3.40;;;20.60;99.90;;;;;;5056185;28;20033;-78
2022/05/18 09:31:16;;;;;;;9.30;3.50;;;20.40;99.90;;;;;;5038656;28;20047;-78
2022/05/18 09:34:25;;;;;;;7.72;3.35;;;19.80;99.90;;;;;;5055823;28;20041;-78
2022/05/18 09:37:22;;;;;;;7.38;3.20;;;20.10;99.90;;;;;;5036507;28;20404;-77
2022/05/18 09:39:53;;;;;;;;;;;19.80;99.90;;;;;;5055795;28;20041;-78
2022/05/18 09:42:27;;;;;;;7.07;3.35;;;19.50;99.90;;;;;;5055836;28;19921;-77
2022/05/18 09:45:01;;;;;;;10.70;3.58;;;19.30;99.90;;;;;;5056028;28;20048;-76
2022/05/18 09:47:32;;;;;;;6.07;3.13;;;19.40;99.90;;;;;;5038242;28;20057;-76
2022/05/18 09:50:06;;;;;;;5.65;3.05;;;19.80;99.90;;;;;;5056416;28;20045;-77
2022/05/18 09:52:37;;;;;;;7.22;3.38;;;20.10;99.90;;;;;;5037481;28;20048;-75
2022/05/18 09:55:09;;;;;;;7.40;3.00;;;20.70;99.90;;;;;;5038016;28;20493;-77
2022/05/18 09:57:44;;;;;;;12.45;3.13;;;20.90;99.90;;;;;;5057433;28;20049;-78
2022/05/18 10:00:15;;;;;;;5.55;3.47;;;21.10;99.90;;;;;;5040381;28;20049;-77
2022/05/18 10:08:21;;;;;;;7.25;3.30;;;20.60;99.90;;;;;;5037977;28;20170;-77
2022/05/18 10:10:56;;;;;;;5.03;2.67;;;20.30;99.90;;;;;;5057314;28;20044;-78
2022/05/18 10:13:27;;;;;;;7.22;2.80;;;20.20;99.90;;;;;;5056643;28;20041;-77
2022/05/18 10:16:07;;;;;;;6.53;2.42;;;20.40;99.90;;;;;;5039781;28;20049;-78
2022/05/18 10:18:41;;;;;;;5.05;2.70;;;20.80;99.90;;;;;;5039068;28;20051;-77
2022/05/18 10:21:19;;;;;;;9.82;2.17;;;20.90;99.90;;;;;;5056110;28;20044;-78
2022/05/18 10:23:57;;;;;;;7.95;3.00;;;20.80;99.90;;;;;;5056309;28;20059;-78
2022/05/18 10:26:32;;;;;;;6.80;2.47;;;20.30;99.90;;;;;;5054931;28;20102;-77
2022/05/18 10:29:02;;;;;;;4.20;1.92;;;20.20;99.90;;;;;;5056225;28;20119;-78
2022/05/18 10:31:34;;;;;;;6.22;2.25;;;19.90;99.90;;;;;;5038703;28;20069;-78
2022/05/18 10:34:17;;;;;;;7.88;2.10;;;20.10;99.90;;;;;;5054649;28;20045;-77
2022/05/18 10:36:46;;;;;;;5.38;2.33;;;20.60;99.90;;;;;;5038083;28;20045;-77
2022/05/18 10:39:35;;;;;;;4.43;2.00;;;20.90;99.90;;;;;;5055594;28;20075;-76
2022/05/18 10:42:11;;;;;;;5.28;2.28;;;21.30;99.90;;;;;;5037512;28;20412;-77
2022/05/18 10:44:38;;;;;;;;;;;21.70;99.90;;;;;;5056337;28;20040;-76
2022/05/18 10:47:21;;;;;;;5.07;2.05;;;21.50;99.90;;;;;;5055233;28;19921;-77
2022/05/18 10:49:49;;;;;;;6.25;2.10;;;21.10;99.90;;;;;;5054424;28;20040;-77
2022/05/18 10:52:19;;;;;;;6.22;2.78;;;20.70;99.90;;;;;;5053190;28;20045;-76
2022/05/18 10:54:59;;;;;;;6.95;2.10;;;20.70;99.90;;;;;;5054259;28;20040;-77
2022/05/18 10:57:33;;;;;;;6.38;2.10;;;20.70;99.90;;;;;;5054792;28;20049;-77
2022/05/18 11:00:07;;;;;;;3.60;2.20;;;21.00;99.90;;;;;;5054799;28;20045;-76
2022/05/18 11:02:44;;;;;;;6.57;2.20;;;21.30;99.90;;;;;;5054353;28;20115;-76
2022/05/18 11:05:22;;;;;;;5.13;2.80;;;21.00;99.90;;;;;;5051597;28;20045;-78
2022/05/18 11:07:50;;;;;;;6.53;2.83;;;20.70;99.90;;;;;;5053175;28;20485;-77
2022/05/18 11:10:20;;;;;;;6.75;2.40;;;21.30;99.90;;;;;;5049272;28;20500;-75
2022/05/18 11:12:51;;;;;;;5.45;2.00;;;21.40;99.90;;;;;;5054496;28;20048;-77
2022/05/18 11:15:27;;;;;;;4.43;1.88;;;21.40;99.90;;;;;;5066443;28;20033;-77
2022/05/18 11:18:08;;;;;;;5.13;1.75;;;21.10;99.90;;;;;;5063512;28;20101;-76
2022/05/18 11:20:47;;;;;;;10.68;2.35;;;20.90;99.90;;;;;;5060935;28;20060;-77
2022/05/18 11:23:27;;;;;;;5.72;3.15;;;21.40;99.90;;;;;;5066213;28;20049;-76
2022/05/18 11:26:07;;;;;;;4.07;2.00;;;21.70;99.90;;;;;;5054024;28;20452;-75
2022/05/18 11:28:44;;;;;;;7.32;2.40;;;21.90;99.90;;;;;;5036294;28;20040;-76
2022/05/18 11:31:28;;;;;;;4.85;2.40;;;21.30;99.90;;;;;;5054861;28;20068;-75
2022/05/18 11:34:03;;;;;;;4.88;1.98;;;21.50;99.90;;;;;;5054363;28;20431;-75
2022/05/18 11:36:39;;;;;;;7.28;1.92;;;21.90;99.90;;;;;;5037416;28;20049;-76
2022/05/18 11:39:08;;;;;;;;;;;21.60;99.90;;;;;;5054514;28;20037;-75
2022/05/18 11:41:53;;;;;;;4.20;1.80;;;21.40;99.90;;;;;;5034829;28;20356;-76
2022/05/18 11:44:36;;;;;;;6.90;1.55;;;21.50;99.90;;;;;;5051542;28;20461;-76
2022/05/18 11:47:20;;;;;;;4.05;1.50;;;21.60;99.90;;;;;;5055759;28;20044;-76
2022/05/18 11:49:59;;;;;;;7.65;2.38;;;21.50;99.90;;;;;;5057949;28;20567;-76
2022/05/18 11:52:41;;;;;;;9.90;2.72;;;21.10;99.90;;;;;;5057446;28;20515;-75
2022/05/18 11:55:26;;;;;;;6.22;2.40;;;21.30;99.90;;;;;;5040062;28;20045;-75
2022/05/18 11:58:07;;;;;;;5.95;1.63;;;21.70;99.90;;;;;;5058141;28;20116;-76
2022/05/18 12:00:51;;;;;;;3.63;1.90;;;20.80;99.90;;;;;;5057257;28;20408;-75
2022/05/18 12:03:51;;;;;;;3.33;1.70;;;20.60;99.90;;;;;;5040805;28;20072;-75
2022/05/18 12:06:37;;;;;;;6.45;1.83;;;20.20;99.90;;;;;;5058894;28;20036;-76
2022/05/18 12:09:24;;;;;;;5.50;1.60;;;20.30;99.90;;;;;;5058782;28;20041;-76
2022/05/18 12:12:01;;;;;;;7.80;1.67;;;20.40;99.90;;;;;;5058407;28;20045;-76
2022/05/18 12:14:42;;;;;;;5.95;2.03;;;20.90;99.90;;;;;;5057632;28;20045;-77
2022/05/18 12:17:17;;;;;;;7.18;1.70;;;21.10;99.90;;;;;;5056596;28;20045;-76
2022/05/18 12:19:52;;;;;;;9.85;2.17;;;21.30;99.90;;;;;;5057045;28;20041;-76
2022/05/18 12:22:24;;;;;;;7.15;1.67;;;21.30;99.90;;;;;;5056697;28;20064;-75
2022/05/18 12:24:54;;;;;;;7.22;1.50;;;20.80;99.90;;;;;;5057218;28;20052;-75
2022/05/18 12:27:24;;;;;;;4.93;1.60;;;20.70;99.90;;;;;;5057149;28;20041;-76
2022/05/18 12:29:56;;;;;;;7.90;1.60;;;20.30;99.90;;;;;;5057159;28;20044;-75
2022/05/18 12:32:25;;;;;;;7.60;1.83;;;20.30;99.90;;;;;;5056856;28;20060;-76
2022/05/18 12:35:02;;;;;;;5.15;1.85;;;20.70;99.90;;;;;;5056627;28;20524;-75
2022/05/18 12:37:32;;;;;;;3.50;1.63;;;20.80;99.90;;;;;;5056985;28;20519;-76
2022/05/18 12:40:19;;;;;;;7.03;1.95;;;21.00;99.90;;;;;;5057109;28;20041;-75
2022/05/18 12:42:51;;;;;;;5.38;1.83;;;20.80;99.90;;;;;;5057093;28;20571;-75
2022/05/18 12:45:33;;;;;;;7.40;2.47;;;20.60;99.90;;;;;;5056874;28;20064;-75
2022/05/18 12:48:14;;;;;;;7.05;2.03;;;20.40;99.90;;;;;;5057081;28;20051;-77
2022/05/18 12:50:45;;;;;;;7.60;2.03;;;20.10;99.90;;;;;;5056876;28;20040;-76
2022/05/18 12:53:16;;;;;;;6.85;1.70;;;19.70;99.90;;;;;;5058302;28;20051;-75
2022/05/18 12:55:52;;;;;;;4.80;1.70;;;20.00;99.90;;;;;;5058856;28;20087;-76
2022/05/18 12:58:30;;;;;;;5.28;2.05;;;20.40;99.90;;;;;;5061172;28;20051;-76
2022/05/18 13:01:07;;;;;;;5.30;1.88;;;20.70;99.90;;;;;;5060810;28;20041;-77
2022/05/18 13:03:44;;;;;;;6.20;1.95;;;20.70;99.90;;;;;;5060615;28;20104;-76
2022/05/18 13:06:15;;;;;;;7.78;1.80;;;20.80;99.90;;;;;;5060885;28;20041;-76
2022/05/18 13:08:58;;;;;;;8.55;1.88;;;20.90;99.90;;;;;;5060280;28;20458;-76
2022/05/18 13:11:40;;;;;;;7.22;1.60;;;20.90;99.90;;;;;;5060505;28;20053;-76
2022/05/18 13:14:34;;;;;;;9.80;1.90;;;20.50;99.90;;;;;;5060176;28;20045;-76
2022/05/18 13:17:22;;;;;;;6.80;2.00;;;20.00;99.90;;;;;;5049465;28;20071;-77
2022/05/18 13:19:59;;;;;;;3.25;1.75;;;19.50;99.90;;;;;;5058594;28;20041;-78